Currently 80°F in Murrieta, California, USA
80°F
81°F / 57°F
calm
0.00"
Monday, July 4, 2022 2:49 PM PDT

Murrieta, California Weather Summary
Last 36 Hours

Temperature Winds Hourly Humidity Dewpoint
Time Report Norm Report Norm Max Gusts Precip. Rpt. Norm Rpt. Norm Pressure
1Mon 02:49 PM  80.0°F  87°F  calm  11 mph  none  0.00"  45%  37%  56°F  57°F  N/A
Mon 02:00 PM  80.1°F  87°F  calm  10 mph  none  0.00"  44%  36%  55°F  56°F  N/A
2Mon 01:06 PM  80.9°F  87°F  calm  9 mph  none  ----  42%  36%  55°F  56°F  N/A
Mon 01:00 PM  80.6°F  87°F  calm  8 mph  none  0.00"  42%  37%  55°F  56°F  N/A
Mon 12:00 PM  78.6°F  85°F  calm  6 mph  none  0.00"  44%  40%  54°F  57°F  N/A
Mon 11:00 AM  74.2°F  82°F  calm  5 mph  none  0.00"  49%  45%  53°F  58°F  N/A
Mon 10:00 AM  70.2°F  78°F  calm  3 mph  none  0.00"  62%  54%  56°F  59°F  N/A
Mon 09:00 AM  65.5°F  73°F  calm  1 mph  none  0.00"  75%  66%  57°F  61°F  N/A
Mon 08:00 AM  61.3°F  68°F  calm  1 mph  none  0.00"  86%  77%  57°F  61°F  N/A
Mon 07:00 AM  60.2°F  63°F  calm  calm  none  0.00"  89%  83%  57°F  58°F  N/A
Mon 06:00 AM  59.4°F  61°F  calm  calm  none  0.00"  91%  86%  57°F  56°F  N/A
Mon 05:00 AM  59.1°F  61°F  calm  calm  none  0.00"  92%  85%  57°F  56°F  N/A
Mon 04:00 AM  58.5°F  62°F  calm  1 mph  none  0.00"  94%  84%  57°F  57°F  N/A
Mon 03:00 AM  58.0°F  62°F  calm  1 mph  none  0.00"  95%  83%  57°F  57°F  N/A
3Mon 02:29 AM  57.0°F  63°F  calm  1 mph  none  ----  91%  82%  54°F  57°F  N/A
Mon 02:00 AM  57.3°F  63°F  calm  1 mph  none  0.00"  90%  81%  54°F  57°F  N/A
Mon 01:00 AM  58.0°F  64°F  calm  1 mph  none  0.00"  88%  80%  55°F  58°F  N/A
Mon 12:00 AM  58.7°F  65°F  calm  2 mph  none  0.00"  89%  79%  55°F  58°F  N/A
Sun 11:00 PM  59.9°F  66°F  calm  2 mph  none  0.00"  86%  78%  56°F  59°F  N/A
Sun 10:00 PM  60.9°F  68°F  calm  3 mph  none  0.00"  83%  76%  55°F  59°F  N/A
Sun 09:00 PM  62.9°F  69°F  calm  6 mph  none  0.00"  77%  73%  55°F  60°F  N/A
Sun 08:00 PM  66.0°F  72°F  calm  8 mph  none  0.00"  67%  66%  54°F  60°F  N/A
Sun 07:00 PM  67.9°F  76°F  calm  8 mph  none  0.00"  62%  56%  54°F  59°F  N/A
Sun 06:00 PM  72.2°F  80°F  calm  10 mph  none  0.00"  53%  49%  53°F  58°F  N/A
Sun 05:00 PM  75.4°F  83°F  calm  11 mph  none  0.00"  46%  43%  53°F  57°F  N/A
Sun 04:00 PM  76.2°F  85°F  calm  11 mph  none  0.00"  48%  39%  55°F  56°F  N/A
Sun 03:00 PM  78.4°F  87°F  calm  11 mph  none  0.00"  43%  37%  53°F  57°F  N/A
Sun 02:00 PM  78.7°F  87°F  calm  10 mph  none  0.00"  43%  36%  54°F  57°F  N/A
Sun 01:00 PM  79.5°F  87°F  calm  8 mph  none  0.00"  42%  37%  53°F  57°F  N/A
Sun 12:00 PM  79.5°F  85°F  calm  6 mph  none  0.00"  34%  40%  48°F  57°F  N/A
Sun 11:00 AM  75.4°F  82°F  calm  5 mph  none  0.00"  46%  45%  52°F  58°F  N/A
Sun 10:00 AM  71.6°F  78°F  calm  3 mph  none  0.00"  58%  54%  55°F  59°F  N/A
Sun 09:00 AM  67.9°F  73°F  calm  1 mph  none  0.00"  66%  66%  56°F  61°F  N/A
Sun 08:00 AM  63.9°F  68°F  calm  1 mph  none  0.00"  79%  77%  57°F  60°F  N/A
Sun 07:00 AM  61.2°F  63°F  calm  calm  none  0.00"  85%  83%  56°F  58°F  N/A
Sun 06:00 AM  60.7°F  61°F  calm  calm  none  0.00"  86%  86%  56°F  56°F  N/A
Sun 05:00 AM  61.4°F  61°F  calm  calm  none  0.00"  87%  85%  57°F  56°F  N/A
Sun 04:00 AM  60.9°F  62°F  calm  1 mph  none  0.00"  88%  84%  57°F  57°F  N/A
Sun 03:00 AM  60.7°F  62°F  calm  1 mph  none  0.00"  91%  83%  58°F  57°F  N/A

  1. Current weather data. No green row appears if the current weather data is also the high or low for the current day.
  2. High temperature for the current day.
  3. Low temperature for the current day.

The Murrieta weather pages are a service of WeatherCurrents. Murrieta, California is located in the Temecula Valley, in southwestern Riverside County, at the junctions of the Interstate 15 and 215 highways.
Copyright ©2022  WeatherCurrents. All rights reserved. - Submit questions and comments - Privacy Policy

This page automatically refreshes every 10 minutes.